createdAt,value
2024-02-19T00:00:01.164Z,0.50
2024-02-19T00:02:27.686Z,0.50
2024-02-19T00:04:54.287Z,0.56
2024-02-19T00:07:21.979Z,0.60
2024-02-19T00:09:48.604Z,0.60
2024-02-19T00:12:15.363Z,0.60
2024-02-19T00:14:41.809Z,0.60
2024-02-19T00:17:09.197Z,0.60
2024-02-19T00:19:36.262Z,0.60
2024-02-19T00:22:02.944Z,0.60
2024-02-19T00:24:29.608Z,0.60
2024-02-19T00:26:56.179Z,0.60
2024-02-19T00:29:22.726Z,0.52
2024-02-19T00:31:49.350Z,0.50
2024-02-19T00:34:16.190Z,0.50
2024-02-19T00:39:09.152Z,0.50
2024-02-19T00:41:37.833Z,0.50
2024-02-19T00:44:04.488Z,0.44
2024-02-19T00:46:31.156Z,0.40
2024-02-19T00:48:57.782Z,0.40
2024-02-19T00:51:24.286Z,0.40
2024-02-19T00:53:50.778Z,0.38
2024-02-19T00:56:17.542Z,0.32
2024-02-19T00:58:44.026Z,0.30
2024-02-19T01:01:10.565Z,0.30
2024-02-19T01:03:37.153Z,0.30
2024-02-19T01:06:03.853Z,0.30
2024-02-19T01:08:30.406Z,0.30
2024-02-19T01:10:57.026Z,0.30
2024-02-19T01:13:23.564Z,0.34
2024-02-19T01:15:50.115Z,0.32
2024-02-19T01:18:18.023Z,0.30
2024-02-19T01:20:44.578Z,0.30
2024-02-19T01:23:11.070Z,0.30
2024-02-19T01:25:37.937Z,0.30
2024-02-19T01:28:05.207Z,0.30
2024-02-19T01:30:32.616Z,0.30
2024-02-19T01:33:01.103Z,0.30
2024-02-19T01:35:27.658Z,0.30
2024-02-19T01:37:54.133Z,0.30
2024-02-19T01:40:20.718Z,0.34
2024-02-19T01:42:47.942Z,0.40
2024-02-19T01:45:27.112Z,0.40
2024-02-19T01:47:59.449Z,0.40
2024-02-19T01:50:31.123Z,0.44
2024-02-19T01:53:02.071Z,0.48
2024-02-19T01:55:29.583Z,0.50
2024-02-19T01:57:58.795Z,0.50
2024-02-19T02:00:26.299Z,0.50
2024-02-19T02:02:53.063Z,0.50
2024-02-19T02:05:19.552Z,0.50
2024-02-19T02:07:46.161Z,0.50
2024-02-19T02:10:12.869Z,0.50
2024-02-19T02:12:39.450Z,0.50
2024-02-19T02:15:06.520Z,0.50
2024-02-19T02:17:33.913Z,0.50
2024-02-19T02:20:00.818Z,0.50
2024-02-19T02:22:27.469Z,0.50
2024-02-19T02:24:54.015Z,0.50
2024-02-19T02:27:20.563Z,0.50
2024-02-19T02:29:47.103Z,0.50
2024-02-19T02:32:13.624Z,0.58
2024-02-19T02:34:40.139Z,0.60
2024-02-19T02:37:06.768Z,0.60
2024-02-19T02:39:33.546Z,0.60
2024-02-19T02:42:00.092Z,0.60
2024-02-19T02:44:26.600Z,0.60
2024-02-19T02:46:53.188Z,0.60
2024-02-19T02:49:19.724Z,0.50
2024-02-19T02:51:46.308Z,0.52
2024-02-19T02:54:12.809Z,0.56
2024-02-19T02:56:39.244Z,0.60
2024-02-19T02:59:05.776Z,0.60
2024-02-19T03:01:33.436Z,0.70
2024-02-19T03:04:00.310Z,0.70
2024-02-19T03:06:27.251Z,0.70
2024-02-19T03:08:53.944Z,0.80
2024-02-19T03:11:20.587Z,0.80
2024-02-19T03:13:47.476Z,0.82
2024-02-19T03:16:16.772Z,0.90
2024-02-19T03:18:45.186Z,0.90
2024-02-19T03:21:16.625Z,0.90
2024-02-19T03:23:45.122Z,0.90
2024-02-19T03:26:11.828Z,0.92
2024-02-19T03:28:38.268Z,0.98
2024-02-19T03:31:04.960Z,1.00
2024-02-19T03:33:31.561Z,1.00
2024-02-19T03:35:58.074Z,1.00
2024-02-19T03:38:25.707Z,1.00
2024-02-19T03:40:52.174Z,1.06
2024-02-19T03:43:18.792Z,1.10
2024-02-19T03:45:45.300Z,1.10
2024-02-19T03:48:11.919Z,1.10
2024-02-19T03:50:38.424Z,1.10
2024-02-19T03:53:05.035Z,1.10
2024-02-19T03:55:31.687Z,1.10
2024-02-19T03:57:58.341Z,1.20
2024-02-19T04:00:24.953Z,1.20
2024-02-19T04:02:51.459Z,1.20
2024-02-19T04:05:17.959Z,1.20
2024-02-19T04:07:45.416Z,1.20
2024-02-19T04:10:12.059Z,1.20
2024-02-19T04:12:39.571Z,1.20
2024-02-19T04:15:06.853Z,1.20
2024-02-19T04:17:36.105Z,1.20
2024-02-19T04:20:05.324Z,1.20
2024-02-19T04:22:31.853Z,1.24
2024-02-19T04:24:58.443Z,1.30
2024-02-19T04:27:24.916Z,1.30
2024-02-19T04:29:51.388Z,1.30
2024-02-19T04:32:17.891Z,1.30
2024-02-19T04:34:45.397Z,1.30
2024-02-19T04:37:12.049Z,1.30
2024-02-19T04:39:38.639Z,1.30
2024-02-19T04:42:05.789Z,1.22
2024-02-19T04:44:32.572Z,1.20
2024-02-19T04:46:59.100Z,1.20
2024-02-19T04:49:28.580Z,1.30
2024-02-19T04:51:55.125Z,1.30
2024-02-19T04:54:22.025Z,1.30
2024-02-19T04:56:48.604Z,1.30
2024-02-19T04:59:15.213Z,1.30
2024-02-19T05:01:41.736Z,1.34
2024-02-19T05:04:08.312Z,1.30
2024-02-19T05:06:35.408Z,1.30
2024-02-19T05:09:01.939Z,1.26
2024-02-19T05:11:28.488Z,1.24
2024-02-19T05:13:55.065Z,1.28
2024-02-19T05:16:21.687Z,1.22
2024-02-19T05:18:48.329Z,1.22
2024-02-19T05:21:15.332Z,1.28
2024-02-19T05:23:41.836Z,1.24
2024-02-19T05:26:09.886Z,1.20
2024-02-19T05:28:37.848Z,1.22
2024-02-19T05:31:04.659Z,1.26
2024-02-19T05:33:31.205Z,1.30
2024-02-19T05:35:57.826Z,1.30
2024-02-19T05:38:24.721Z,1.36
2024-02-19T05:40:51.183Z,1.40
2024-02-19T05:43:17.717Z,1.40
2024-02-19T05:48:10.892Z,1.50
2024-02-19T05:50:37.514Z,1.50
2024-02-19T05:53:04.153Z,1.50
2024-02-19T05:55:30.697Z,1.50
2024-02-19T05:57:57.621Z,1.60
2024-02-19T06:00:24.140Z,1.60
2024-02-19T06:02:50.785Z,1.64
2024-02-19T06:05:17.524Z,1.70
2024-02-19T06:07:45.644Z,1.70
2024-02-19T06:10:12.275Z,1.78
2024-02-19T06:12:38.899Z,1.80
2024-02-19T06:15:05.943Z,1.80
2024-02-19T06:17:32.551Z,1.82
2024-02-19T06:19:59.297Z,1.90
2024-02-19T06:22:25.892Z,1.90
2024-02-19T06:24:52.471Z,1.90
2024-02-19T06:27:20.769Z,1.92
2024-02-19T06:29:48.338Z,2.00
2024-02-19T06:32:14.897Z,2.10
2024-02-19T06:37:13.014Z,2.14
2024-02-19T06:39:41.399Z,2.20
2024-02-19T06:42:08.640Z,2.30
2024-02-19T06:44:35.122Z,2.30
2024-02-19T06:47:01.595Z,2.38
2024-02-19T06:49:36.998Z,2.40
2024-02-19T06:52:04.058Z,2.44
2024-02-19T06:54:31.982Z,2.50
2024-02-19T06:56:59.523Z,2.50
2024-02-19T06:59:25.983Z,2.60
2024-02-19T07:02:17.558Z,2.60
2024-02-19T07:07:10.300Z,2.68
2024-02-19T07:12:17.212Z,2.70
2024-02-19T07:17:12.739Z,2.70
2024-02-19T07:19:39.355Z,2.70
2024-02-19T07:22:15.011Z,2.80
2024-02-19T07:24:41.590Z,2.80
2024-02-19T07:27:08.285Z,2.80
2024-02-19T07:29:34.808Z,2.80
2024-02-19T07:32:01.275Z,2.80
2024-02-19T07:34:42.415Z,2.78
2024-02-19T07:37:10.112Z,2.80
2024-02-19T07:39:40.385Z,2.80
2024-02-19T07:42:07.098Z,2.80
2024-02-19T07:44:46.825Z,2.80
2024-02-19T07:47:13.293Z,2.80
2024-02-19T07:49:40.077Z,2.80
2024-02-19T07:52:07.335Z,2.80
2024-02-19T07:54:33.970Z,2.82
2024-02-19T07:57:25.767Z,2.90
2024-02-19T07:59:52.309Z,2.90
2024-02-19T08:02:19.095Z,3.00
2024-02-19T08:04:45.798Z,3.10
2024-02-19T08:07:38.032Z,3.18
2024-02-19T08:10:05.659Z,3.20
2024-02-19T08:12:39.291Z,3.20
2024-02-19T08:15:11.536Z,3.20
2024-02-19T08:17:38.117Z,3.28
2024-02-19T08:20:05.575Z,3.30
2024-02-19T08:22:32.235Z,3.30
2024-02-19T08:24:59.151Z,3.30
2024-02-19T08:27:46.300Z,3.40
2024-02-19T08:30:13.143Z,3.40
2024-02-19T08:32:39.682Z,3.50
2024-02-19T08:35:06.835Z,3.50
2024-02-19T08:37:46.101Z,3.50
2024-02-19T08:40:12.782Z,3.50
2024-02-19T08:42:39.387Z,3.60
2024-02-19T08:45:06.892Z,3.60
2024-02-19T08:47:33.568Z,3.60
2024-02-19T08:50:25.003Z,3.58
2024-02-19T08:52:51.651Z,3.60
2024-02-19T08:55:18.155Z,3.60
2024-02-19T09:00:15.088Z,3.68
2024-02-19T09:02:43.501Z,3.70
2024-02-19T09:05:13.307Z,3.70
2024-02-19T09:07:39.972Z,3.70
2024-02-19T09:10:07.621Z,3.80
2024-02-19T09:12:46.300Z,3.80
2024-02-19T09:15:12.819Z,3.90
2024-02-19T09:17:39.429Z,3.90
2024-02-19T09:20:07.887Z,4.00
2024-02-19T09:22:47.286Z,4.10
2024-02-19T09:25:14.767Z,4.10
2024-02-19T09:27:41.363Z,4.12
2024-02-19T09:30:09.297Z,4.14
2024-02-19T09:32:35.897Z,4.10
2024-02-19T09:35:27.920Z,4.10
2024-02-19T09:37:54.672Z,4.10
2024-02-19T09:40:26.641Z,4.10
2024-02-19T09:43:18.711Z,4.10
2024-02-19T09:45:46.242Z,4.10
2024-02-19T09:48:14.199Z,4.08
2024-02-19T09:53:20.189Z,4.10
2024-02-19T09:55:47.233Z,4.10
2024-02-19T09:58:14.500Z,4.10
2024-02-19T10:00:41.266Z,4.14
2024-02-19T10:03:33.290Z,4.20
2024-02-19T10:05:59.872Z,4.30
2024-02-19T10:08:26.478Z,4.40
2024-02-19T10:10:57.393Z,4.50
2024-02-19T10:13:28.326Z,4.60
2024-02-19T10:15:54.888Z,4.70
2024-02-19T10:18:22.222Z,4.84
2024-02-19T10:20:53.118Z,4.90
2024-02-19T10:23:39.550Z,4.90
2024-02-19T10:26:06.099Z,5.00
2024-02-19T10:28:32.781Z,5.00
2024-02-19T10:30:59.374Z,5.10
2024-02-19T10:33:25.910Z,5.20
2024-02-19T10:36:20.805Z,5.30
2024-02-19T10:38:47.626Z,5.30
2024-02-19T10:41:14.987Z,5.30
2024-02-19T10:46:21.973Z,5.30
2024-02-19T10:48:51.433Z,5.30
2024-02-19T10:51:21.026Z,5.40
2024-02-19T10:54:05.360Z,5.44
2024-02-19T10:56:40.871Z,5.56
2024-02-19T10:59:12.368Z,5.58
2024-02-19T11:04:24.184Z,5.70
2024-02-19T11:06:57.482Z,5.70
2024-02-19T11:09:47.438Z,5.76
2024-02-19T11:12:15.137Z,5.80
2024-02-19T11:14:43.596Z,5.90
2024-02-19T11:17:10.805Z,5.90
2024-02-19T11:22:23.618Z,5.90
2024-02-19T11:24:52.069Z,5.90
2024-02-19T11:27:19.027Z,6.00
2024-02-19T11:29:48.249Z,6.02
2024-02-19T11:32:22.277Z,6.10
2024-02-19T11:34:51.734Z,6.10
2024-02-19T11:37:19.632Z,6.20
2024-02-19T11:39:46.575Z,6.30
2024-02-19T11:42:30.826Z,6.30
2024-02-19T11:44:59.912Z,6.40
2024-02-19T11:47:27.081Z,6.40
2024-02-19T11:49:53.677Z,6.34
2024-02-19T11:52:20.454Z,6.30
2024-02-19T11:55:12.105Z,6.30
2024-02-19T11:57:38.595Z,6.30
2024-02-19T12:00:08.461Z,6.30
2024-02-19T12:02:46.512Z,6.30
2024-02-19T12:05:13.271Z,6.20
2024-02-19T12:07:40.665Z,6.20
2024-02-19T12:10:11.120Z,6.20
2024-02-19T12:15:18.015Z,6.22
2024-02-19T12:20:12.722Z,6.40
2024-02-19T12:22:41.634Z,6.40
2024-02-19T12:25:17.238Z,6.50
2024-02-19T12:27:43.860Z,6.50
2024-02-19T12:30:11.140Z,6.60
2024-02-19T12:32:38.210Z,6.60
2024-02-19T12:35:06.747Z,6.60
2024-02-19T12:37:47.620Z,6.60
2024-02-19T12:40:14.954Z,6.60
2024-02-19T12:42:42.230Z,6.70
2024-02-19T12:45:10.028Z,6.70
2024-02-19T12:47:47.968Z,6.70
2024-02-19T12:50:16.640Z,6.70
2024-02-19T12:52:43.692Z,6.76
2024-02-19T12:55:10.863Z,6.80
2024-02-19T12:57:39.003Z,6.80
2024-02-19T13:00:12.150Z,6.80
2024-02-19T13:02:38.958Z,6.82
2024-02-19T13:05:06.180Z,6.90
2024-02-19T13:07:32.860Z,7.06
2024-02-19T13:09:59.973Z,7.20
2024-02-19T13:12:35.582Z,7.30
2024-02-19T13:15:02.132Z,7.30
2024-02-19T13:17:36.020Z,7.38
2024-02-19T13:20:07.772Z,7.46
2024-02-19T13:22:43.645Z,7.50
2024-02-19T13:25:10.225Z,7.54
2024-02-19T13:27:36.879Z,7.60
2024-02-19T13:30:03.872Z,7.60
2024-02-19T13:32:31.063Z,7.60
2024-02-19T13:35:23.299Z,7.60
2024-02-19T13:37:51.406Z,7.70
2024-02-19T13:40:19.224Z,7.70
2024-02-19T13:45:24.619Z,7.80
2024-02-19T13:47:59.826Z,7.80
2024-02-19T13:50:26.958Z,7.80
2024-02-19T13:53:11.987Z,7.80
2024-02-19T13:55:38.600Z,7.80
2024-02-19T13:58:05.295Z,7.80
2024-02-19T14:00:32.486Z,7.80
2024-02-19T14:02:58.932Z,7.80
2024-02-19T14:05:48.493Z,7.84
2024-02-19T14:08:15.942Z,7.90
2024-02-19T14:10:42.894Z,7.90
2024-02-19T14:15:50.376Z,7.90
2024-02-19T14:18:17.330Z,7.90
2024-02-19T14:20:44.017Z,7.90
2024-02-19T14:23:10.538Z,7.90
2024-02-19T14:25:47.894Z,7.80
2024-02-19T14:28:14.560Z,7.80
2024-02-19T14:30:41.076Z,7.76
2024-02-19T14:33:07.653Z,7.70
2024-02-19T14:35:34.465Z,7.70
2024-02-19T14:38:03.165Z,7.64
2024-02-19T14:40:29.763Z,7.60
2024-02-19T14:42:56.425Z,7.50
2024-02-19T14:45:23.386Z,7.50
2024-02-19T14:47:50.381Z,7.40
2024-02-19T14:50:17.401Z,7.40
2024-02-19T14:52:44.592Z,7.40
2024-02-19T14:55:12.784Z,7.30
2024-02-19T14:57:46.146Z,7.20
2024-02-19T15:00:21.772Z,7.20
2024-02-19T15:02:50.665Z,7.14
2024-02-19T15:05:18.500Z,7.10
2024-02-19T15:07:47.210Z,7.10
2024-02-19T15:10:16.752Z,7.10
2024-02-19T15:12:44.383Z,7.00
2024-02-19T15:15:14.213Z,7.00
2024-02-19T15:17:40.884Z,6.90
2024-02-19T15:20:10.253Z,6.90
2024-02-19T15:22:36.987Z,6.80
2024-02-19T15:25:05.055Z,6.80
2024-02-19T15:27:32.698Z,6.80
2024-02-19T15:30:00.256Z,6.80
2024-02-19T15:32:27.062Z,6.80
2024-02-19T15:34:54.267Z,6.80
2024-02-19T15:37:21.730Z,6.80
2024-02-19T15:39:48.565Z,6.72
2024-02-19T15:42:15.093Z,6.70
2024-02-19T15:44:41.593Z,6.70
2024-02-19T15:47:08.115Z,6.70
2024-02-19T15:49:34.721Z,6.70
2024-02-19T15:52:01.498Z,6.70
2024-02-19T15:54:30.135Z,6.70
2024-02-19T15:56:56.637Z,6.70
2024-02-19T15:59:23.080Z,6.70
2024-02-19T16:01:50.302Z,6.70
2024-02-19T16:04:19.877Z,6.70
2024-02-19T16:06:47.282Z,6.64
2024-02-19T16:09:14.472Z,6.64
2024-02-19T16:11:41.121Z,6.62
2024-02-19T16:14:07.694Z,6.64
2024-02-19T16:16:34.367Z,6.68
2024-02-19T16:19:02.711Z,6.70
2024-02-19T16:21:29.488Z,6.70
2024-02-19T16:23:56.599Z,6.68
2024-02-19T16:26:23.143Z,6.66
2024-02-19T16:28:51.099Z,6.70
2024-02-19T16:31:19.505Z,6.66
2024-02-19T16:33:47.427Z,6.60
2024-02-19T16:36:14.061Z,6.60
2024-02-19T16:38:42.276Z,6.60
2024-02-19T16:41:09.346Z,6.60
2024-02-19T16:43:36.257Z,6.60
2024-02-19T16:46:05.771Z,6.60
2024-02-19T16:48:39.591Z,6.60
2024-02-19T16:51:06.723Z,6.60
2024-02-19T16:53:35.134Z,6.60
2024-02-19T16:56:02.537Z,6.60
2024-02-19T16:58:33.118Z,6.60
2024-02-19T17:01:00.410Z,6.56
2024-02-19T17:03:27.626Z,6.50
2024-02-19T17:05:55.497Z,6.50
2024-02-19T17:08:29.809Z,6.50
2024-02-19T17:10:57.328Z,6.40
2024-02-19T17:13:24.593Z,6.40
2024-02-19T17:15:51.251Z,6.40
2024-02-19T17:18:18.292Z,6.34
2024-02-19T17:20:45.238Z,6.30
2024-02-19T17:23:16.997Z,6.30
2024-02-19T17:25:43.796Z,6.20
2024-02-19T17:28:10.598Z,6.20
2024-02-19T17:30:37.615Z,6.20
2024-02-19T17:33:04.324Z,6.10
2024-02-19T17:35:31.402Z,6.04
2024-02-19T17:37:58.037Z,6.00
2024-02-19T17:40:24.801Z,6.00
2024-02-19T17:42:52.269Z,5.90
2024-02-19T17:45:18.949Z,5.90
2024-02-19T17:47:47.476Z,5.90
2024-02-19T17:50:14.111Z,5.90
2024-02-19T17:52:41.212Z,5.80
2024-02-19T17:55:10.146Z,5.80
2024-02-19T17:57:36.755Z,5.80
2024-02-19T18:00:04.966Z,5.80
2024-02-19T18:02:31.468Z,5.80
2024-02-19T18:05:01.166Z,5.80
2024-02-19T18:07:28.935Z,5.80
2024-02-19T18:09:56.864Z,5.80
2024-02-19T18:12:23.542Z,5.80
2024-02-19T18:14:50.164Z,5.80
2024-02-19T18:17:16.678Z,5.78
2024-02-19T18:22:12.428Z,5.74
2024-02-19T18:24:39.172Z,5.72
2024-02-19T18:27:08.164Z,5.74
2024-02-19T18:29:36.481Z,5.74
2024-02-19T18:32:03.815Z,5.76
2024-02-19T18:34:31.843Z,5.72
2024-02-19T18:37:00.265Z,5.70
2024-02-19T18:39:32.798Z,5.70
2024-02-19T18:41:59.670Z,5.70
2024-02-19T18:44:26.278Z,5.70
2024-02-19T18:46:52.792Z,5.70
2024-02-19T18:49:21.612Z,5.70
2024-02-19T18:51:49.039Z,5.78
2024-02-19T18:54:16.217Z,5.72
2024-02-19T18:56:43.351Z,5.70
2024-02-19T18:59:10.045Z,5.70
2024-02-19T19:01:37.059Z,5.70
2024-02-19T19:04:04.591Z,5.70
2024-02-19T19:06:31.677Z,5.70
2024-02-19T19:09:06.522Z,5.70
2024-02-19T19:11:35.989Z,5.70
2024-02-19T19:14:03.581Z,5.70
2024-02-19T19:16:31.233Z,5.70
2024-02-19T19:19:04.049Z,5.70
2024-02-19T19:21:37.849Z,5.70
2024-02-19T19:24:07.328Z,5.70
2024-02-19T19:26:35.186Z,5.70
2024-02-19T19:29:02.248Z,5.70
2024-02-19T19:31:29.143Z,5.70
2024-02-19T19:33:56.008Z,5.70
2024-02-19T19:36:22.618Z,5.70
2024-02-19T19:38:49.132Z,5.70
2024-02-19T19:41:15.792Z,5.70
2024-02-19T19:43:42.457Z,5.70
2024-02-19T19:46:09.286Z,5.70
2024-02-19T19:48:36.523Z,5.70
2024-02-19T19:51:03.369Z,5.64
2024-02-19T19:53:31.396Z,5.60
2024-02-19T19:55:57.902Z,5.60
2024-02-19T19:58:31.902Z,5.60
2024-02-19T20:01:01.015Z,5.60
2024-02-19T20:03:27.661Z,5.60
2024-02-19T20:05:54.659Z,5.50
2024-02-19T20:08:21.595Z,5.50
2024-02-19T20:10:49.101Z,5.50
2024-02-19T20:13:16.004Z,5.50
2024-02-19T20:15:42.574Z,5.50
2024-02-19T20:18:09.999Z,5.50
2024-02-19T20:20:36.826Z,5.50
2024-02-19T20:23:03.806Z,5.50
2024-02-19T20:25:31.550Z,5.50
2024-02-19T20:28:01.753Z,5.52
2024-02-19T20:30:28.278Z,5.56
2024-02-19T20:32:54.931Z,5.58
2024-02-19T20:35:21.807Z,5.60
2024-02-19T20:37:48.378Z,5.56
2024-02-19T20:40:14.998Z,5.58
2024-02-19T20:42:41.602Z,5.56
2024-02-19T20:45:14.013Z,5.58
2024-02-19T20:47:41.671Z,5.60
2024-02-19T20:50:10.712Z,5.60
2024-02-19T20:52:38.208Z,5.60
2024-02-19T20:55:06.108Z,5.60
2024-02-19T20:57:34.925Z,5.60
2024-02-19T21:00:04.348Z,5.60
2024-02-19T21:02:32.230Z,5.60
2024-02-19T21:04:59.422Z,5.60
2024-02-19T21:07:26.030Z,5.60
2024-02-19T21:09:57.631Z,5.60
2024-02-19T21:12:24.633Z,5.60
2024-02-19T21:14:51.108Z,5.66
2024-02-19T21:17:17.593Z,5.70
2024-02-19T21:19:44.134Z,5.70
2024-02-19T21:22:10.714Z,5.68
2024-02-19T21:24:37.267Z,5.70
2024-02-19T21:27:05.204Z,5.66
2024-02-19T21:29:31.743Z,5.60
2024-02-19T21:31:59.076Z,5.60
2024-02-19T21:34:25.691Z,5.60
2024-02-19T21:36:54.005Z,5.50
2024-02-19T21:39:20.710Z,5.48
2024-02-19T21:41:48.085Z,5.42
2024-02-19T21:44:14.630Z,5.40
2024-02-19T21:46:42.440Z,5.40
2024-02-19T21:49:09.420Z,5.40
2024-02-19T21:51:36.060Z,5.40
2024-02-19T21:54:02.539Z,5.40
2024-02-19T21:56:29.025Z,5.40
2024-02-19T21:58:55.793Z,5.40
2024-02-19T22:01:22.924Z,5.40
2024-02-19T22:03:50.600Z,5.40
2024-02-19T22:06:17.728Z,5.40
2024-02-19T22:08:44.621Z,5.40
2024-02-19T22:11:11.548Z,5.40
2024-02-19T22:13:38.181Z,5.40
2024-02-19T22:16:05.329Z,5.48
2024-02-19T22:18:31.932Z,5.50
2024-02-19T22:20:58.424Z,5.50
2024-02-19T22:23:25.124Z,5.50
2024-02-19T22:25:51.689Z,5.50
2024-02-19T22:28:18.349Z,5.60
2024-02-19T22:30:44.997Z,5.60
2024-02-19T22:33:11.771Z,5.60
2024-02-19T22:35:38.405Z,5.60
2024-02-19T22:38:05.127Z,5.60
2024-02-19T22:40:33.014Z,5.60
2024-02-19T22:42:59.943Z,5.60
2024-02-19T22:45:26.492Z,5.62
2024-02-19T22:47:53.002Z,5.70
2024-02-19T22:50:19.588Z,5.70
2024-02-19T22:52:47.956Z,5.70
2024-02-19T22:55:12.704Z,5.70
2024-02-19T22:57:39.341Z,5.80
2024-02-19T23:00:16.840Z,5.80
2024-02-19T23:02:43.393Z,5.80
2024-02-19T23:05:09.933Z,5.90
2024-02-19T23:07:36.491Z,5.90
2024-02-19T23:10:03.095Z,5.90
2024-02-19T23:12:29.596Z,5.90
2024-02-19T23:14:56.035Z,5.96
2024-02-19T23:17:22.541Z,6.00
2024-02-19T23:19:49.166Z,6.00
2024-02-19T23:22:15.863Z,6.00
2024-02-19T23:24:42.336Z,6.02
2024-02-19T23:27:11.378Z,6.06
2024-02-19T23:29:37.932Z,6.10
2024-02-19T23:32:04.882Z,6.10
2024-02-19T23:34:31.735Z,6.10
2024-02-19T23:36:58.346Z,6.18
2024-02-19T23:39:24.944Z,6.20
2024-02-19T23:41:51.491Z,6.20
2024-02-19T23:44:17.981Z,6.20
2024-02-19T23:46:45.308Z,6.20
2024-02-19T23:49:13.196Z,6.20
2024-02-19T23:51:39.761Z,6.20
2024-02-19T23:54:07.999Z,6.28
2024-02-19T23:56:34.475Z,6.30
2024-02-19T23:59:01.092Z,6.30
